Thomasboro, Illinois
Current Conditions -  °F | °C
As of 5:50 AM on Friday 21 Nov 2014 (Local Time) from KTIP Reporting Station
Clear Clear  
Wind Chill: 11°   Ceiling: Unl
Heat Index: 11°   Visibility: 10mi
Dew Point:   Wind: 0mph
Humidity: 77%   Direction: NA
Pressure: 30.41"   Gusts: NA
Location:  40.24°N, 88.18°W
Report Text: KTIP 211150Z AUTO 00000KT 10SM CLR M11/M15 A3041 RMK AO2 T11141147 11076 21118
Loading
Personal Weather Stations






























Interactive Weather Map New forecast layout! Learn more

10-Day Weather Forecast

Advertisements
Track Severe Weather on mobile